METAR UND TAF INFORMATION
LOWS 262050Z 33003KT 9999 -RA FEW007 SCT014 BKN028 06/05 Q1011 TEMPO RA

 FLUGHAFENKARTE

 RUNWAY INFORMATION
Runway 16 Runway length 9022 ft Runway width 148 ft
Runway elevation 1411 ft Runway displaced threshold 656 ft Runway heading 157
Runway 34 Runway length 9022 ft Runway width 148 ft
Runway elevation 1411 ft Runway displaced threshold 787 ft Runway heading 337

 AIRPORT FREQUENCIES
Type APP Name APP Frequency 123.725 MHZ
Type ATIS Name ATIS Frequency 125.725 MHZ
Type GND Name GND Frequency 121.75 MHZ
Type TWR Name TWR Frequency 118.1 MHZ

 AIRPORT NEAR NAVIGATION AIDS
Type VOR-DME Name Salzburg Frequency 113800 KHZ
Type NDB Name Salzburg Frequency 382 KHZ
Type NDB Name Salzburg Frequency 410 KHZ
Type NDB Name Salzburg Frequency 356 KHZ